Time;durP1;ratioP1;P1;durP2;ratioP2;P2;SDS_P1;SDS_P2;PMS_P1;PMS_P2;Temp;Humidity;BMP_temperature;BMP_pressure;BME280_temperature;BME280_humidity;BME280_pressure;Samples;Min_cycle;Max_cycle;Signal;HPM_P1;HPM_P2
2021/12/11 00:00:49;;;;;;;12.88;6.50;;;;;;;0.78;100.00;99472.34;5033679;28;20041;-79
2021/12/11 00:03:25;;;;;;;11.30;6.35;;;;;;;0.73;100.00;99464.97;5065461;28;20045;-79
2021/12/11 00:06:08;;;;;;;10.60;6.05;;;;;;;0.73;100.00;99470.34;5033380;28;20052;-79
2021/12/11 00:08:39;;;;;;;10.48;5.80;;;;;;;0.95;100.00;99472.34;5032068;28;20054;-79
2021/12/11 00:11:16;;;;;;;16.63;5.78;;;;;;;0.86;100.00;99471.94;5033210;28;20057;-79
2021/12/11 00:13:45;;;;;;;10.57;6.85;;;;;;;0.82;100.00;99464.59;5033481;28;20044;-79
2021/12/11 00:16:18;;;;;;;9.75;5.88;;;;;;;0.71;100.00;99461.72;5033060;28;20045;-79
2021/12/11 00:18:52;;;;;;;12.50;5.78;;;;;;;0.63;100.00;99475.56;5033073;28;20049;-79
2021/12/11 00:21:23;;;;;;;12.07;5.95;;;;;;;0.49;100.00;99473.16;5033288;28;20416;-79
2021/12/11 00:24:03;;;;;;;8.02;5.47;;;;;;;0.42;100.00;99469.78;5033482;28;20045;-79
2021/12/11 00:26:35;;;;;;;7.80;6.05;;;;;;;0.44;100.00;99472.25;5033132;28;20373;-79
2021/12/11 00:29:06;;;;;;;7.40;5.50;;;;;;;0.31;100.00;99473.34;5031031;28;20408;-79
2021/12/11 00:31:36;;;;;;;9.25;6.10;;;;;;;0.34;100.00;99481.75;5033072;28;20048;-79
2021/12/11 00:34:10;;;;;;;9.02;5.63;;;;;;;0.25;100.00;99465.16;5031786;28;20060;-79
2021/12/11 00:36:38;;;;;;;6.45;5.00;;;;;;;0.23;100.00;99464.59;5033031;28;20037;-79
2021/12/11 00:39:13;;;;;;;8.13;5.68;;;;;;;0.22;100.00;99459.44;5032967;28;20052;-79
2021/12/11 00:41:49;;;;;;;8.98;5.65;;;;;;;0.19;100.00;99462.63;5032900;28;20045;-79
2021/12/11 00:44:17;;;;;;;13.73;5.65;;;;;;;0.15;100.00;99459.59;5031992;28;20385;-79
2021/12/11 00:46:45;;;;;;;10.13;5.78;;;;;;;0.22;100.00;99462.97;5032411;28;20046;-79
2021/12/11 00:49:21;;;;;;;7.97;5.57;;;;;;;0.53;100.00;99463.53;5025969;28;20058;-79
2021/12/11 00:51:52;;;;;;;7.38;5.85;;;;;;;0.61;100.00;99467.72;5025645;28;20484;-79
2021/12/11 00:54:21;;;;;;;9.30;5.40;;;;;;;0.51;100.00;99462.97;5033200;28;20044;-79
2021/12/11 00:56:51;;;;;;;9.32;5.75;;;;;;;0.31;100.00;99462.56;5032707;28;20053;-79
2021/12/11 00:59:21;;;;;;;9.60;5.65;;;;;;;0.28;100.00;99461.16;5032251;28;20060;-79
2021/12/11 01:01:57;;;;;;;6.70;4.68;;;;;;;0.23;100.00;99464.59;5032269;28;20084;-79
2021/12/11 01:04:30;;;;;;;8.80;5.28;;;;;;;0.21;100.00;99464.03;5032379;28;20535;-79
2021/12/11 01:07:02;;;;;;;6.07;4.40;;;;;;;0.19;99.79;99466.13;5032555;28;20045;-79
2021/12/11 01:09:37;;;;;;;6.93;5.15;;;;;;;0.10;100.00;99459.50;5030972;28;20056;-79
2021/12/11 01:12:14;;;;;;;7.65;4.95;;;;;;;0.02;100.00;99459.84;5032469;28;20049;-79
2021/12/11 01:14:53;;;;;;;5.82;4.78;;;;;;;-0.01;100.00;99469.19;5063329;28;20038;-79
2021/12/11 01:17:43;;;;;;;7.22;4.53;;;;;;;-0.11;100.00;99460.94;5032277;28;20057;-79
2021/12/11 01:20:19;;;;;;;8.55;4.93;;;;;;;-0.16;100.00;99465.16;5032289;28;20785;-79
2021/12/11 01:22:48;;;;;;;6.43;4.55;;;;;;;-0.14;100.00;99478.38;5032155;28;20037;-79
2021/12/11 01:25:26;;;;;;;9.15;4.70;;;;;;;-0.20;100.00;99480.09;5032208;28;20072;-79
2021/12/11 01:28:02;;;;;;;8.95;5.20;;;;;;;-0.26;100.00;99480.25;5031850;28;20526;-79
2021/12/11 01:30:34;;;;;;;6.97;5.18;;;;;;;-0.26;100.00;99477.56;5032089;28;20054;-79
2021/12/11 01:33:06;;;;;;;8.32;5.30;;;;;;;-0.27;100.00;99468.66;5032106;28;20052;-79
2021/12/11 01:35:35;;;;;;;8.95;5.20;;;;;;;-0.28;100.00;99469.72;5030929;28;20045;-79
2021/12/11 01:38:17;;;;;;;6.18;5.03;;;;;;;-0.29;100.00;99482.34;5031739;28;20492;-79
2021/12/11 01:40:49;;;;;;;7.47;5.25;;;;;;;-0.30;100.00;99485.25;5031969;28;20053;-79
2021/12/11 01:43:22;;;;;;;9.50;4.63;;;;;;;-0.34;100.00;99495.66;5031737;28;20053;-78
2021/12/11 01:45:53;;;;;;;8.65;5.85;;;;;;;-0.32;100.00;99493.56;5031804;28;20057;-78
2021/12/11 01:48:25;;;;;;;8.88;5.70;;;;;;;-0.30;100.00;99486.09;5031944;28;20041;-78
2021/12/11 01:51:06;;;;;;;8.23;4.90;;;;;;;-0.28;100.00;99481.28;5031958;28;20061;-78
2021/12/11 01:53:40;;;;;;;8.80;4.97;;;;;;;-0.25;100.00;99493.44;5063738;28;20046;-79
2021/12/11 01:56:16;;;;;;;5.38;4.85;;;;;;;-0.16;100.00;99477.75;5031615;28;20050;-78
2021/12/11 01:58:56;;;;;;;6.75;4.88;;;;;;;-0.16;100.00;99485.81;5026370;28;20068;-79
2021/12/11 02:01:46;;;;;;;7.75;5.05;;;;;;;-0.12;100.00;99491.56;5031849;28;20045;-79
2021/12/11 02:04:17;;;;;;;7.05;5.03;;;;;;;-0.18;100.00;99490.63;5031695;28;20041;-79
2021/12/11 02:06:47;;;;;;;7.05;4.78;;;;;;;-0.20;100.00;99498.13;5031783;28;20404;-79
2021/12/11 02:09:26;;;;;;;7.65;4.97;;;;;;;-0.17;100.00;99494.94;5031897;28;20061;-79
2021/12/11 02:12:10;;;;;;;10.32;4.82;;;;;;;-0.18;100.00;99487.94;5031598;28;20056;-79
2021/12/11 02:14:43;;;;;;;7.32;4.90;;;;;;;-0.20;100.00;99490.06;5029803;28;20057;-79
2021/12/11 02:17:39;;;;;;;6.65;5.40;;;;;;;-0.18;100.00;99488.78;5018950;28;20547;-79
2021/12/11 02:20:10;;;;;;;8.80;4.78;;;;;;;-0.18;100.00;99482.56;5018752;28;20075;-79
2021/12/11 02:22:43;;;;;;;10.48;4.97;;;;;;;-0.13;100.00;99480.00;5031445;28;20476;-79
2021/12/11 02:25:25;;;;;;;7.27;5.33;;;;;;;-0.12;100.00;99470.03;5031920;28;20045;-80
2021/12/11 02:28:24;;;;;;;7.90;5.13;;;;;;;-0.08;100.00;99477.41;5031270;28;20288;-79
2021/12/11 02:31:07;;;;;;;6.00;4.38;;;;;;;-0.07;100.00;99470.97;5031376;28;20053;-79
2021/12/11 02:33:47;;;;;;;7.88;4.75;;;;;;;0.01;100.00;99480.56;5030493;28;20042;-79
2021/12/11 02:36:26;;;;;;;6.40;4.88;;;;;;;-0.03;100.00;99476.69;5030937;28;20049;-79
2021/12/11 02:39:05;;;;;;;7.53;5.25;;;;;;;-0.02;100.00;99481.84;5031029;28;20064;-79
2021/12/11 02:41:38;;;;;;;11.32;5.35;;;;;;;0.07;100.00;99481.47;5031449;28;20049;-79
2021/12/11 02:44:21;;;;;;;6.35;5.20;;;;;;;0.22;100.00;99475.59;5030852;28;20057;-79
2021/12/11 02:46:56;;;;;;;8.55;4.68;;;;;;;0.20;100.00;99483.09;5031091;28;20472;-79
2021/12/11 02:49:30;;;;;;;7.13;5.00;;;;;;;0.16;100.00;99482.75;5023352;28;20041;-79
2021/12/11 02:52:08;;;;;;;6.72;4.70;;;;;;;0.13;100.00;99477.81;5027210;28;20416;-79
2021/12/11 02:54:42;;;;;;;6.95;5.25;;;;;;;0.36;100.00;99470.75;5033794;28;20053;-79
2021/12/11 02:57:26;;;;;;;7.38;5.40;;;;;;;0.32;100.00;99469.59;5034526;28;20045;-79
2021/12/11 02:59:54;;;;;;;9.10;5.13;;;;;;;0.22;100.00;99479.09;5034548;28;20053;-79
2021/12/11 03:02:29;;;;;;;7.95;5.13;;;;;;;0.19;100.00;99481.47;5034787;28;20496;-79
2021/12/11 03:05:07;;;;;;;5.85;4.68;;;;;;;0.20;100.00;99483.09;5034829;28;20045;-79
2021/12/11 03:07:38;;;;;;;9.75;5.13;;;;;;;0.20;100.00;99488.47;5034218;28;20037;-79
2021/12/11 03:10:11;;;;;;;7.22;5.38;;;;;;;0.18;100.00;99495.94;5034655;28;20053;-79
2021/12/11 03:12:40;;;;;;;6.78;4.70;;;;;;;0.11;100.00;99488.81;5034537;28;20038;-79
2021/12/11 03:15:10;;;;;;;7.97;5.43;;;;;;;0.04;100.00;99487.34;5034108;28;20052;-79
2021/12/11 03:17:38;;;;;;;8.25;5.57;;;;;;;0.07;100.00;99500.31;5034263;28;20069;-79
2021/12/11 03:20:10;;;;;;;10.27;5.18;;;;;;;0.03;100.00;99493.75;5034602;28;20057;-79
2021/12/11 03:22:41;;;;;;;7.03;4.63;;;;;;;0.05;100.00;99500.53;5034342;28;20514;-79
2021/12/11 03:25:15;;;;;;;7.68;5.70;;;;;;;0.10;100.00;99508.72;5034150;28;20856;-78
2021/12/11 03:27:45;;;;;;;8.77;5.38;;;;;;;0.13;100.00;99493.97;5034363;28;20050;-79
2021/12/11 03:30:21;;;;;;;8.18;5.13;;;;;;;0.18;100.00;99495.94;5034310;28;20128;-79
2021/12/11 03:32:52;;;;;;;6.18;4.88;;;;;;;0.09;100.00;99498.19;5034109;28;20045;-79
2021/12/11 03:35:21;;;;;;;6.00;4.35;;;;;;;0.04;100.00;99501.59;5033993;28;20049;-79
2021/12/11 03:37:50;;;;;;;7.07;5.07;;;;;;;0.09;100.00;99500.88;5032828;28;20400;-79
2021/12/11 03:40:19;;;;;;;6.75;5.32;;;;;;;0.25;100.00;99502.03;5034165;28;20053;-79
2021/12/11 03:42:49;;;;;;;6.80;5.10;;;;;;;0.35;100.00;99502.22;5034125;28;20480;-79
2021/12/11 03:45:24;;;;;;;6.00;4.45;;;;;;;0.57;100.00;99498.03;5060953;28;20396;-79
2021/12/11 03:47:57;;;;;;;6.07;4.95;;;;;;;0.40;100.00;99509.59;5027719;28;20053;-78
2021/12/11 03:50:28;;;;;;;5.70;4.57;;;;;;;0.23;100.00;99510.34;5019815;28;20053;-79
2021/12/11 03:52:57;;;;;;;7.47;4.85;;;;;;;0.01;100.00;99503.94;5033952;28;20543;-78
2021/12/11 03:55:31;;;;;;;6.57;5.03;;;;;;;-0.21;100.00;99493.78;5032552;28;20049;-78
2021/12/11 03:58:01;;;;;;;7.47;5.13;;;;;;;-0.25;100.00;99511.47;5033779;28;20064;-78
2021/12/11 04:00:35;;;;;;;6.38;4.80;;;;;;;-0.17;100.00;99511.91;5033722;28;20404;-78
2021/12/11 04:03:06;;;;;;;9.98;5.63;;;;;;;-0.15;100.00;99508.97;5032431;28;20042;-78
2021/12/11 04:05:38;;;;;;;7.32;5.00;;;;;;;-0.20;100.00;99512.38;5033465;28;20045;-79
2021/12/11 04:08:08;;;;;;;7.07;5.20;;;;;;;-0.35;100.00;99503.97;5033707;28;20053;-78
2021/12/11 04:10:38;;;;;;;7.32;4.88;;;;;;;-0.33;100.00;99504.56;5033406;28;20057;-78
2021/12/11 04:13:08;;;;;;;8.05;5.40;;;;;;;-0.34;100.00;99511.78;5033571;28;20041;-78
2021/12/11 04:15:39;;;;;;;5.75;5.13;;;;;;;-0.29;100.00;99519.97;5032460;28;20042;-78
2021/12/11 04:18:08;;;;;;;8.93;5.93;;;;;;;-0.22;100.00;99519.88;5025223;28;20050;-78
2021/12/11 04:20:39;;;;;;;9.05;5.82;;;;;;;-0.27;100.00;99514.38;5026487;28;20049;-78
2021/12/11 04:23:11;;;;;;;7.78;5.50;;;;;;;-0.48;100.00;99521.16;5033283;28;20076;-79
2021/12/11 04:25:42;;;;;;;9.63;5.60;;;;;;;-0.54;100.00;99525.56;5032727;28;20045;-78
2021/12/11 04:28:12;;;;;;;7.93;5.75;;;;;;;-0.51;100.00;99530.50;5033169;28;20053;-78
2021/12/11 04:30:42;;;;;;;6.93;4.85;;;;;;;-0.33;100.00;99534.97;5033137;28;20049;-79
2021/12/11 04:33:10;;;;;;;7.32;5.63;;;;;;;-0.30;100.00;99531.78;5032626;28;20060;-78
2021/12/11 04:35:39;;;;;;;12.50;5.28;;;;;;;-0.43;100.00;99540.88;5029100;28;20040;-78
2021/12/11 04:38:08;;;;;;;8.95;5.50;;;;;;;-0.63;100.00;99538.53;5031847;28;20044;-78
2021/12/11 04:40:40;;;;;;;9.45;6.47;;;;;;;-0.73;100.00;99535.59;5033030;28;20495;-78
2021/12/11 04:43:14;;;;;;;9.00;5.80;;;;;;;-0.75;100.00;99540.38;5033064;28;20045;-78
2021/12/11 04:45:49;;;;;;;6.13;4.90;;;;;;;-0.83;100.00;99546.91;5032792;28;20496;-78
2021/12/11 04:51:27;;;;;;;6.50;4.38;;;;;;;-0.80;100.00;99551.03;5032747;28;20056;-78
2021/12/11 04:59:46;;;;;;;10.60;5.75;;;;;;;-0.76;100.00;99553.00;5032452;28;20048;-78
2021/12/11 05:07:55;;;;;;;8.82;5.32;;;;;;;-0.64;100.00;99562.97;5032429;28;20049;-79
2021/12/11 05:10:34;;;;;;;11.23;5.57;;;;;;;-0.73;100.00;99571.34;5032497;28;20076;-79
2021/12/11 05:13:04;;;;;;;6.90;5.90;;;;;;;-0.76;100.00;99568.28;5032568;28;20503;-78
2021/12/11 05:15:36;;;;;;;9.88;6.40;;;;;;;-0.68;100.00;99567.97;5030342;28;20496;-78
2021/12/11 05:18:08;;;;;;;9.10;5.47;;;;;;;-0.67;100.00;99569.63;5018762;28;20092;-78
2021/12/11 05:20:38;;;;;;;7.47;5.20;;;;;;;-0.46;100.00;99578.16;5064444;28;20484;-79
2021/12/11 05:23:06;;;;;;;9.80;5.80;;;;;;;-0.60;100.00;99583.75;5032179;28;20052;-78
2021/12/11 05:25:34;;;;;;;8.88;4.82;;;;;;;-0.63;100.00;99578.84;5030623;28;20503;-78
2021/12/11 05:28:03;;;;;;;7.85;4.72;;;;;;;-0.77;100.00;99572.03;5032027;28;20045;-78
2021/12/11 05:30:36;;;;;;;8.68;5.32;;;;;;;-0.85;100.00;99578.53;5031043;28;20405;-78
2021/12/11 05:33:04;;;;;;;6.93;5.00;;;;;;;-0.95;100.00;99585.31;5032024;28;20045;-78
2021/12/11 05:35:36;;;;;;;8.02;4.93;;;;;;;-0.96;100.00;99588.22;5032064;28;20050;-79
2021/12/11 05:38:07;;;;;;;9.95;5.65;;;;;;;-1.02;100.00;99586.44;5031837;28;20050;-78
2021/12/11 05:40:39;;;;;;;8.25;5.15;;;;;;;-0.95;100.00;99595.22;5031764;28;20061;-77
2021/12/11 05:43:08;;;;;;;10.85;5.05;;;;;;;-0.76;100.00;99601.38;5063977;28;20064;-79
2021/12/11 05:45:37;;;;;;;8.55;5.90;;;;;;;-0.74;100.00;99601.16;5032004;28;20054;-79
2021/12/11 05:48:06;;;;;;;8.38;5.53;;;;;;;-0.82;100.00;99597.72;5031418;28;20056;-79
2021/12/11 05:50:46;;;;;;;7.43;4.28;;;;;;;-0.88;100.00;99598.63;5017657;28;20045;-79
2021/12/11 05:53:16;;;;;;;8.23;5.00;;;;;;;-0.99;100.00;99586.81;5032017;28;20482;-79
2021/12/11 05:55:47;;;;;;;6.68;4.85;;;;;;;-1.05;100.00;99587.72;5031586;28;20037;-79
2021/12/11 05:58:24;;;;;;;7.43;4.43;;;;;;;-1.00;100.00;99595.09;5031492;28;20065;-78
2021/12/11 06:00:54;;;;;;;7.20;5.70;;;;;;;-0.76;100.00;99612.13;5031410;28;20041;-79
2021/12/11 06:03:22;;;;;;;6.80;5.25;;;;;;;-0.87;100.00;99616.38;5031467;28;20048;-79
2021/12/11 06:05:50;;;;;;;10.55;5.65;;;;;;;-0.86;100.00;99614.53;5031479;28;20044;-79
2021/12/11 06:08:18;;;;;;;8.27;5.38;;;;;;;-0.82;100.00;99618.41;5031662;28;20053;-79
2021/12/11 06:10:46;;;;;;;7.22;5.68;;;;;;;-0.77;100.00;99629.28;5031472;28;20044;-79
2021/12/11 06:13:14;;;;;;;7.75;5.18;;;;;;;-0.79;100.00;99623.31;5031585;28;20045;-78
2021/12/11 06:15:42;;;;;;;9.75;6.32;;;;;;;-0.56;100.00;99625.25;5031117;28;20052;-79
2021/12/11 06:18:15;;;;;;;8.30;5.40;;;;;;;-0.78;100.00;99618.75;5029339;28;20060;-78
2021/12/11 06:20:43;;;;;;;11.10;6.15;;;;;;;-0.85;100.00;99622.38;5029879;28;20042;-79
2021/12/11 06:23:11;;;;;;;8.25;5.75;;;;;;;-0.89;100.00;99631.13;5028818;28;20053;-77
2021/12/11 06:25:39;;;;;;;26.02;17.20;;;;;;;-0.88;100.00;99625.50;5031373;28;20057;-80
2021/12/11 06:28:08;;;;;;;20.52;14.88;;;;;;;-0.94;100.00;99631.78;5033859;28;20053;-77
2021/12/11 06:30:38;;;;;;;15.90;12.45;;;;;;;-0.97;100.00;99633.03;5033465;28;20033;-78
2021/12/11 06:33:07;;;;;;;23.98;16.08;;;;;;;-0.97;100.00;99642.97;5034972;28;20416;-78
2021/12/11 06:35:59;;;;;;;46.58;34.28;;;;;;;-0.95;100.00;99643.56;5027620;28;20046;-78
2021/12/11 06:38:30;;;;;;;26.67;17.25;;;;;;;-0.88;100.00;99663.09;5032675;28;20038;-79
2021/12/11 06:40:59;;;;;;;22.73;15.98;;;;;;;-0.77;100.00;99669.59;5034898;28;20056;-79
2021/12/11 06:43:27;;;;;;;15.23;12.07;;;;;;;-0.81;100.00;99657.66;5035004;28;20361;-79
2021/12/11 06:45:55;;;;;;;12.50;8.73;;;;;;;-0.86;100.00;99660.19;5033822;28;20050;-80
2021/12/11 06:48:24;;;;;;;18.02;12.55;;;;;;;-0.86;100.00;99668.25;5014874;28;20054;-79
2021/12/11 06:50:53;;;;;;;20.77;12.70;;;;;;;-0.74;100.00;99668.31;5021153;28;20056;-79
2021/12/11 06:53:34;;;;;;;16.88;12.63;;;;;;;-0.84;100.00;99669.66;5034655;28;20049;-79
2021/12/11 06:56:06;;;;;;;17.00;12.27;;;;;;;-0.89;100.00;99676.78;5034809;28;20049;-79
2021/12/11 06:58:34;;;;;;;17.15;9.30;;;;;;;-0.80;100.00;99671.91;5034531;28;20060;-79
2021/12/11 07:01:05;;;;;;;14.80;7.75;;;;;;;-0.62;100.00;99679.94;5031301;28;20076;-79
2021/12/11 07:03:34;;;;;;;12.10;8.15;;;;;;;-0.79;100.00;99690.47;5021979;28;20050;-79
2021/12/11 07:06:03;;;;;;;12.57;6.25;;;;;;;-0.86;100.00;99690.56;5014616;28;20419;-77
2021/12/11 07:08:32;;;;;;;9.27;6.63;;;;;;;-0.99;100.00;99682.66;5014697;28;20049;-79
2021/12/11 07:11:00;;;;;;;11.07;6.50;;;;;;;-0.99;100.00;99686.19;5014427;28;20045;-79
2021/12/11 07:13:28;;;;;;;11.98;6.47;;;;;;;-0.89;100.00;99698.28;5014412;28;20053;-79
2021/12/11 07:15:58;;;;;;;9.63;6.45;;;;;;;-0.78;100.00;99704.75;5014517;28;20041;-78
2021/12/11 07:18:31;;;;;;;11.85;6.32;;;;;;;-0.80;100.00;99709.53;5020388;28;20041;-78
2021/12/11 07:20:59;;;;;;;7.25;5.53;;;;;;;-0.88;100.00;99700.72;5019053;28;20522;-78
2021/12/11 07:23:28;;;;;;;9.77;6.55;;;;;;;-0.83;100.00;99692.78;5025110;28;20046;-78
2021/12/11 07:26:13;;;;;;;10.98;5.78;;;;;;;-0.74;100.00;99717.50;5026555;28;20046;-79
2021/12/11 07:28:42;;;;;;;12.32;5.88;;;;;;;-0.72;100.00;99718.09;5014398;28;20045;-80
2021/12/11 07:31:10;;;;;;;10.85;6.32;;;;;;;-0.64;100.00;99716.13;5019962;28;20050;-78
2021/12/11 07:33:39;;;;;;;11.20;6.55;;;;;;;-0.50;100.00;99730.22;5015620;28;20053;-78
2021/12/11 07:36:08;;;;;;;8.82;5.93;;;;;;;-0.39;100.00;99732.13;5024314;28;20049;-78
2021/12/11 07:38:37;;;;;;;17.17;6.68;;;;;;;-0.35;100.00;99730.63;5013853;28;20057;-79
2021/12/11 07:41:09;;;;;;;8.05;5.65;;;;;;;-0.20;100.00;99737.47;5019845;28;20049;-78
2021/12/11 07:43:40;;;;;;;10.30;6.03;;;;;;;-0.21;100.00;99730.44;5019626;28;20042;-78
2021/12/11 07:46:13;;;;;;;13.93;7.15;;;;;;;-0.01;100.00;99744.41;5020080;28;20075;-79
2021/12/11 07:48:44;;;;;;;10.20;6.00;;;;;;;0.01;100.00;99746.03;5014017;28;20046;-78
2021/12/11 07:51:13;;;;;;;8.60;6.07;;;;;;;0.15;100.00;99749.34;5021442;28;20049;-78
2021/12/11 07:53:42;;;;;;;11.43;5.97;;;;;;;0.23;100.00;99746.31;5032324;28;20049;-78
2021/12/11 07:56:11;;;;;;;8.50;6.25;;;;;;;0.49;100.00;99755.81;5038012;28;20056;-78
2021/12/11 07:58:40;;;;;;;11.50;6.43;;;;;;;0.89;100.00;99766.97;5044956;28;20052;-78
2021/12/11 08:01:11;;;;;;;15.05;7.38;;;;;;;1.03;100.00;99772.94;5033706;28;20435;-78
2021/12/11 08:03:40;;;;;;;10.45;7.30;;;;;;;0.96;100.00;99785.69;5033609;28;20050;-79
2021/12/11 08:06:10;;;;;;;18.38;9.77;;;;;;;0.97;99.30;99788.16;5033601;28;20049;-79
2021/12/11 08:08:40;;;;;;;13.93;8.82;;;;;;;0.90;99.36;99798.22;5033375;28;20049;-78
2021/12/11 08:11:13;;;;;;;12.98;9.07;;;;;;;0.86;99.79;99797.88;5033303;28;20061;-78
2021/12/11 08:13:44;;;;;;;17.60;9.65;;;;;;;1.11;98.41;99814.88;5031596;28;20662;-78
2021/12/11 08:16:19;;;;;;;16.98;9.77;;;;;;;1.13;98.18;99812.75;5032479;28;20562;-79
2021/12/11 08:18:50;;;;;;;16.23;8.45;;;;;;;1.42;96.81;99820.91;5036210;28;20041;-78
2021/12/11 08:21:20;;;;;;;11.32;7.63;;;;;;;1.62;95.25;99831.31;5033012;28;20046;-79
2021/12/11 08:23:53;;;;;;;13.25;7.68;;;;;;;1.91;94.25;99846.69;5031920;28;20041;-78
2021/12/11 08:26:24;;;;;;;12.98;7.68;;;;;;;1.93;93.25;99831.06;5033186;28;20492;-79
2021/12/11 08:28:53;;;;;;;9.07;6.70;;;;;;;1.95;93.19;99845.16;5033163;28;20041;-80
2021/12/11 08:31:22;;;;;;;9.55;5.97;;;;;;;2.16;93.23;99851.75;5032995;28;20068;-79
2021/12/11 08:33:52;;;;;;;11.25;6.63;;;;;;;2.35;91.68;99863.16;5032864;28;20046;-80
2021/12/11 08:36:23;;;;;;;11.20;6.03;;;;;;;2.55;91.78;99870.00;5032935;28;20049;-80
2021/12/11 08:38:52;;;;;;;9.88;5.90;;;;;;;2.66;89.69;99882.63;5032881;28;20365;-80
2021/12/11 08:41:24;;;;;;;9.38;6.38;;;;;;;2.82;88.27;99883.69;5032820;28;20393;-81
2021/12/11 08:43:59;;;;;;;12.02;6.18;;;;;;;3.07;86.92;99884.31;5032821;28;20045;-81
2021/12/11 08:46:30;;;;;;;9.38;5.75;;;;;;;2.90;86.67;99885.16;5016302;28;20400;-78
2021/12/11 08:49:02;;;;;;;9.52;6.15;;;;;;;3.20;86.05;99900.22;5020081;28;20594;-79
2021/12/11 08:51:43;;;;;;;12.15;6.35;;;;;;;3.31;85.33;99908.47;5021429;28;20400;-79
2021/12/11 08:54:12;;;;;;;9.57;6.20;;;;;;;3.60;84.51;99908.34;5024096;28;20396;-78
2021/12/11 08:56:43;;;;;;;9.63;5.75;;;;;;;3.83;83.74;99920.00;5023545;28;20042;-79
2021/12/11 08:59:18;;;;;;;10.10;6.85;;;;;;;3.71;83.98;99928.25;5014933;28;20042;-79
2021/12/11 09:01:53;;;;;;;11.38;6.93;;;;;;;4.01;82.38;99933.22;5024678;28;20502;-79
2021/12/11 09:04:43;;;;;;;9.63;6.35;;;;;;;4.24;80.87;99933.22;5023369;28;20046;-79
2021/12/11 09:07:20;;;;;;;11.93;6.60;;;;;;;4.41;81.27;99943.97;5030688;28;20041;-80
2021/12/11 09:10:14;;;;;;;13.05;7.53;;;;;;;4.66;77.29;99959.69;5018363;28;20420;-82
2021/12/11 09:12:49;;;;;;;10.02;6.70;;;;;;;4.47;79.50;99967.34;5013991;28;20046;-80
2021/12/11 09:15:32;;;;;;;10.27;5.70;;;;;;;4.58;78.81;99973.69;5012429;28;20046;-81
2021/12/11 09:18:23;;;;;;;8.25;6.00;;;;;;;4.75;79.21;99989.88;5014985;28;20392;-79
2021/12/11 09:21:25;;;;;;;8.73;6.70;;;;;;;5.09;78.79;100000.47;5027586;28;20042;-80
2021/12/11 09:24:03;;;;;;;9.70;6.80;;;;;;;4.93;79.22;100004.13;5026518;28;20048;-80
2021/12/11 09:26:45;;;;;;;10.27;6.60;;;;;;;4.87;78.09;100013.28;5028671;28;20480;-80
2021/12/11 09:29:23;;;;;;;12.88;6.78;;;;;;;4.89;77.90;100027.41;5029217;28;20049;-81
2021/12/11 09:31:59;;;;;;;15.45;8.00;;;;;;;4.96;79.88;100033.44;5028463;28;20049;-82
2021/12/11 09:34:35;;;;;;;11.77;7.93;;;;;;;5.42;78.49;100048.53;5028843;28;20056;-80
2021/12/11 09:37:05;;;;;;;12.52;8.07;;;;;;;5.38;77.16;100061.81;5028689;28;20507;-80
2021/12/11 09:39:38;;;;;;;17.50;8.88;;;;;;;5.60;77.36;100066.31;5027508;28;20048;-81
2021/12/11 09:42:05;;;;;;;16.65;9.57;;;;;;;5.90;76.22;100073.88;5025123;28;20045;-79
2021/12/11 09:44:42;;;;;;;20.75;9.80;;;;;;;5.62;77.45;100083.97;5026239;28;20069;-78
2021/12/11 09:47:18;;;;;;;18.10;9.50;;;;;;;5.87;77.04;100090.66;5018839;28;20049;-79
2021/12/11 09:49:57;;;;;;;16.80;9.05;;;;;;;5.96;75.59;100090.22;5027172;28;20050;-79
2021/12/11 09:52:29;;;;;;;17.55;8.23;;;;;;;5.72;75.75;100080.50;5027682;28;20041;-79
2021/12/11 09:55:04;;;;;;;13.30;8.27;;;;;;;5.49;75.52;100078.97;5050295;28;20050;-79
2021/12/11 09:57:35;;;;;;;11.90;7.90;;;;;;;5.53;76.34;100090.13;5023792;28;20041;-78
2021/12/11 10:00:17;;;;;;;13.35;7.70;;;;;;;5.77;76.57;100085.19;5025824;28;20048;-79
2021/12/11 10:02:45;;;;;;;14.88;8.90;;;;;;;5.38;78.38;100097.06;5030009;28;20049;-79
2021/12/11 10:05:30;;;;;;;13.02;9.70;;;;;;;5.43;78.77;100109.88;5031989;28;20050;-78
2021/12/11 10:08:30;;;;;;;15.43;10.15;;;;;;;5.68;81.05;100106.56;5031406;28;20044;-78
2021/12/11 10:11:16;;;;;;;17.20;10.45;;;;;;;5.50;79.86;100107.75;5031975;28;20107;-78
2021/12/11 10:13:53;;;;;;;14.95;10.45;;;;;;;5.50;81.09;100114.00;5055086;28;20053;-78
2021/12/11 10:16:27;;;;;;;19.63;10.65;;;;;;;5.86;79.46;100116.19;5030106;28;20396;-78
2021/12/11 10:18:55;;;;;;;12.77;9.37;;;;;;;5.61;77.69;100125.78;5028212;28;20064;-78
2021/12/11 10:21:29;;;;;;;15.07;7.97;;;;;;;5.29;76.02;100123.03;5023871;28;20052;-78
2021/12/11 10:23:58;;;;;;;14.27;8.20;;;;;;;5.35;76.54;100128.25;5045206;28;20392;-78
2021/12/11 10:26:28;;;;;;;12.38;8.52;;;;;;;5.58;77.99;100130.91;5031176;28;20046;-78
2021/12/11 10:28:59;;;;;;;12.15;7.00;;;;;;;5.44;76.32;100135.91;5033218;28;20045;-78
2021/12/11 10:31:44;;;;;;;11.18;7.15;;;;;;;5.37;75.57;100141.53;5027811;28;20044;-77
2021/12/11 10:34:18;;;;;;;9.80;6.75;;;;;;;5.50;75.83;100140.31;5028024;28;20064;-77
2021/12/11 10:36:56;;;;;;;9.75;6.80;;;;;;;5.52;76.63;100149.03;5030222;28;20491;-79
2021/12/11 10:39:24;;;;;;;9.90;6.90;;;;;;;5.78;76.21;100143.84;5031824;28;20049;-78
2021/12/11 10:41:54;;;;;;;11.77;7.95;;;;;;;5.94;76.38;100157.53;5024728;28;20044;-79
2021/12/11 10:44:29;;;;;;;12.52;8.00;;;;;;;6.32;75.70;100161.91;5021118;28;20046;-79
2021/12/11 10:47:05;;;;;;;12.80;8.35;;;;;;;6.52;75.55;100170.47;5014935;28;20050;-79
2021/12/11 10:49:35;;;;;;;10.80;7.75;;;;;;;6.52;75.17;100159.59;5015101;28;20373;-79
2021/12/11 10:52:13;;;;;;;11.25;8.23;;;;;;;6.56;73.94;100168.88;5030692;28;20045;-79
2021/12/11 10:54:41;;;;;;;16.08;8.43;;;;;;;6.42;74.81;100166.63;5034745;28;20046;-80
2021/12/11 10:57:10;;;;;;;10.82;7.72;;;;;;;6.45;74.18;100166.09;5034666;28;20050;-80
2021/12/11 10:59:42;;;;;;;16.30;8.25;;;;;;;6.33;74.76;100162.75;5030328;28;20045;-79
2021/12/11 11:02:15;;;;;;;13.48;9.20;;;;;;;6.80;73.67;100166.53;5022170;28;20065;-79
2021/12/11 11:04:50;;;;;;;12.73;7.72;;;;;;;7.38;70.92;100164.88;5023887;28;20053;-79
2021/12/11 11:07:20;;;;;;;9.02;7.28;;;;;;;7.31;72.10;100167.00;5023563;28;20044;-80
2021/12/11 11:09:50;;;;;;;11.05;7.30;;;;;;;7.14;71.63;100170.78;5014521;28;20057;-79
2021/12/11 11:12:21;;;;;;;12.68;8.13;;;;;;;7.08;70.30;100167.22;5026581;28;20042;-79
2021/12/11 11:14:53;;;;;;;11.70;7.38;;;;;;;7.43;69.71;100175.75;5014189;28;20058;-79
2021/12/11 11:17:25;;;;;;;12.05;8.07;;;;;;;7.85;70.29;100173.91;5014587;28;20048;-79
2021/12/11 11:19:54;;;;;;;10.23;7.43;;;;;;;8.00;67.54;100175.81;5014546;28;20053;-79
2021/12/11 11:22:27;;;;;;;11.63;6.85;;;;;;;8.01;66.18;100172.00;5014369;28;20046;-79
2021/12/11 11:25:06;;;;;;;13.00;7.07;;;;;;;8.16;66.71;100167.66;5014273;28;20060;-79
2021/12/11 11:27:34;;;;;;;9.65;6.70;;;;;;;8.19;66.43;100161.63;5014314;28;20034;-79
2021/12/11 11:30:08;;;;;;;9.82;6.55;;;;;;;8.26;66.49;100175.78;5014274;28;20485;-79
2021/12/11 11:32:36;;;;;;;10.07;6.53;;;;;;;8.28;63.17;100170.06;5014173;28;20050;-79
2021/12/11 11:35:14;;;;;;;8.80;5.95;;;;;;;7.99;64.77;100176.91;5013991;28;20049;-79
2021/12/11 11:37:49;;;;;;;10.93;6.63;;;;;;;8.01;64.34;100177.44;5017020;28;20045;-79
2021/12/11 11:40:23;;;;;;;8.65;5.82;;;;;;;8.13;60.93;100174.47;5028341;28;20499;-79
2021/12/11 11:42:51;;;;;;;7.72;5.45;;;;;;;8.14;60.44;100180.72;5013908;28;20057;-79
2021/12/11 11:45:20;;;;;;;11.88;6.05;;;;;;;8.30;59.05;100185.06;5014020;28;20042;-80
2021/12/11 11:47:48;;;;;;;8.05;5.60;;;;;;;8.49;59.47;100187.22;5024863;28;20045;-80
2021/12/11 11:50:19;;;;;;;7.38;6.25;;;;;;;8.51;60.37;100171.38;5019696;28;20054;-80
2021/12/11 11:52:47;;;;;;;8.13;5.85;;;;;;;8.80;61.57;100173.53;5027237;28;20038;-79
2021/12/11 11:55:21;;;;;;;11.23;6.50;;;;;;;8.97;61.68;100175.13;5033563;28;20041;-80
2021/12/11 11:57:51;;;;;;;7.88;5.82;;;;;;;8.59;60.02;100173.59;5032148;28;20048;-80
2021/12/11 12:00:43;;;;;;;10.70;6.25;;;;;;;8.58;64.81;100166.50;5032234;28;20063;-79
2021/12/11 12:03:14;;;;;;;8.45;5.70;;;;;;;8.49;62.73;100170.84;5030455;28;20046;-79
2021/12/11 12:05:46;;;;;;;8.43;5.35;;;;;;;8.63;59.08;100164.84;5027229;28;20045;-80
2021/12/11 12:08:16;;;;;;;5.65;3.58;;;;;;;8.92;53.88;100173.22;5023302;28;20053;-79